Time;durP1;ratioP1;P1;durP2;ratioP2;P2;SDS_P1;SDS_P2;PMS_P1;PMS_P2;Temp;Humidity;BMP_temperature;BMP_pressure;BME280_temperature;BME280_humidity;BME280_pressure;Samples;Min_cycle;Max_cycle;Signal;HPM_P1;HPM_P2
2023/01/06 00:02:02;;;;;;;11.90;4.30;;;;;;;8.66;53.60;94262.34;6165064;23;20331;-79
2023/01/06 00:04:27;;;;;;;9.68;3.47;;;;;;;8.64;54.97;94274.03;6165244;23;20001;-79
2023/01/06 00:06:53;;;;;;;8.85;4.80;;;;;;;8.61;55.07;94273.84;6165067;23;19997;-81
2023/01/06 00:09:18;;;;;;;7.57;3.67;;;;;;;8.72;54.98;94285.88;6164820;23;20295;-81
2023/01/06 00:11:44;;;;;;;8.80;3.80;;;;;;;8.72;54.60;94295.72;6164810;23;19998;-80
2023/01/06 00:14:09;;;;;;;6.63;3.53;;;;;;;8.76;54.81;94294.06;6164634;23;20057;-80
2023/01/06 00:16:35;;;;;;;6.03;3.38;;;;;;;8.73;55.39;94300.75;6138789;23;20048;-80
2023/01/06 00:19:01;;;;;;;10.05;3.15;;;;;;;8.77;55.89;94301.75;6164977;23;20005;-80
2023/01/06 00:21:27;;;;;;;8.35;3.63;;;;;;;8.79;56.20;94304.09;6164757;23;20292;-81
2023/01/06 00:23:53;;;;;;;7.65;4.30;;;;;;;8.76;56.11;94307.34;6138653;23;20005;-80
2023/01/06 00:26:18;;;;;;;12.82;4.22;;;;;;;8.62;56.94;94310.75;6164801;23;20294;-80
2023/01/06 00:28:44;;;;;;;7.35;3.58;;;;;;;8.66;56.94;94320.81;6164743;23;20169;-80
2023/01/06 00:31:13;;;;;;;7.85;4.13;;;;;;;8.68;56.97;94323.97;6164748;23;20006;-79
2023/01/06 00:33:39;;;;;;;14.45;4.03;;;;;;;8.68;57.10;94318.66;6164738;23;20052;-80
2023/01/06 00:36:07;;;;;;;8.35;3.40;;;;;;;8.60;57.34;94331.50;6164670;23;20041;-80
2023/01/06 00:38:35;;;;;;;8.10;4.45;;;;;;;8.47;58.22;94324.28;6164745;23;20001;-80
2023/01/06 00:42:02;;;;;;;7.78;3.60;;;;;;;8.46;58.78;94338.63;6164850;23;20000;-80
2023/01/06 00:43:51;;;;;;;11.68;4.20;;;;;;;8.35;59.42;94316.69;6164483;23;20009;-80
2023/01/06 00:46:16;;;;;;;8.02;3.33;;;;;;;8.39;59.29;94327.53;6164783;23;20008;-79
2023/01/06 00:48:42;;;;;;;8.85;3.50;;;;;;;8.34;59.57;94331.03;6164784;23;20002;-80
2023/01/06 00:51:07;;;;;;;7.80;3.75;;;;;;;8.27;60.00;94345.78;6164489;23;20070;-80
2023/01/06 00:53:32;;;;;;;7.88;3.85;;;;;;;8.21;60.65;94347.69;6164660;23;20005;-80
2023/01/06 00:56:00;;;;;;;9.20;3.90;;;;;;;8.14;60.41;94342.75;6164739;23;19997;-80
2023/01/06 00:58:29;;;;;;;9.65;3.92;;;;;;;8.12;60.65;94349.41;6164547;23;20009;-81
2023/01/06 01:00:55;;;;;;;7.47;3.22;;;;;;;8.10;60.80;94341.72;6164841;23;20001;-80
2023/01/06 01:03:21;;;;;;;7.28;3.30;;;;;;;8.08;60.94;94332.44;6164685;23;19998;-81
2023/01/06 01:05:46;;;;;;;8.13;3.75;;;;;;;8.05;61.36;94349.75;6166379;23;20036;-81
2023/01/06 01:08:12;;;;;;;7.03;2.80;;;;;;;8.02;61.53;94335.19;6166284;23;20221;-80
2023/01/06 01:10:37;;;;;;;7.35;3.33;;;;;;;8.01;61.61;94335.47;6166681;23;20006;-80
2023/01/06 01:13:03;;;;;;;5.85;2.92;;;;;;;7.98;61.70;94333.41;6166501;23;20359;-80
2023/01/06 01:15:28;;;;;;;10.73;3.85;;;;;;;7.91;61.94;94343.56;6166749;23;20057;-80
2023/01/06 01:17:54;;;;;;;6.43;3.40;;;;;;;7.92;62.10;94332.66;6166312;23;20231;-80
2023/01/06 01:20:19;;;;;;;7.22;3.60;;;;;;;7.96;61.90;94319.63;6140289;23;20311;-80
2023/01/06 01:22:44;;;;;;;8.43;3.67;;;;;;;7.94;61.78;94314.59;6166370;23;20005;-80
2023/01/06 01:25:10;;;;;;;6.68;2.95;;;;;;;8.00;61.84;94325.94;6166361;23;20040;-80
2023/01/06 01:27:35;;;;;;;6.43;3.20;;;;;;;7.94;61.78;94319.91;6140366;23;20048;-81
2023/01/06 01:30:01;;;;;;;14.82;4.05;;;;;;;8.00;61.69;94336.56;6166532;23;20283;-81
2023/01/06 01:32:27;;;;;;;7.05;3.22;;;;;;;8.00;61.54;94325.94;6166279;23;20008;-80
2023/01/06 01:34:52;;;;;;;9.05;3.20;;;;;;;8.01;61.42;94330.16;6166488;23;19997;-80
2023/01/06 01:37:18;;;;;;;6.53;3.40;;;;;;;7.95;61.53;94328.63;6140349;23;20284;-80
2023/01/06 01:39:43;;;;;;;4.68;2.80;;;;;;;7.96;61.46;94309.00;6166389;23;20037;-80
2023/01/06 01:42:16;;;;;;;7.10;3.25;;;;;;;7.95;61.76;94312.72;6166173;23;20001;-80
2023/01/06 01:44:54;;;;;;;6.15;2.90;;;;;;;8.01;61.29;94295.66;6166276;23;20359;-80
2023/01/06 01:47:35;;;;;;;5.68;3.10;;;;;;;7.97;61.15;94290.09;6166312;23;20002;-81
2023/01/06 01:50:13;;;;;;;5.00;2.83;;;;;;;7.98;60.17;94285.63;6166313;23;20044;-80
2023/01/06 01:52:41;;;;;;;5.22;2.67;;;;;;;8.03;59.44;94275.69;6166106;23;20047;-79
2023/01/06 01:55:08;;;;;;;3.72;2.17;;;;;;;8.10;58.96;94285.97;6166166;23;20004;-80
2023/01/06 01:57:49;;;;;;;2.80;1.52;;;;;;;8.11;57.53;94250.38;6166165;23;20200;-79
2023/01/06 02:00:16;;;;;;;2.97;1.70;;;;;;;8.16;58.14;94255.63;6166215;23;20000;-79
2023/01/06 02:02:42;;;;;;;3.08;1.42;;;;;;;8.23;57.69;94245.41;6166006;23;20032;-80
2023/01/06 02:05:10;;;;;;;3.22;1.55;;;;;;;8.35;57.80;94257.47;6166261;23;19994;-80
2023/01/06 02:07:35;;;;;;;2.10;1.13;;;;;;;8.43;56.22;94249.66;6140010;23;20005;-80
2023/01/06 02:10:17;;;;;;;4.07;1.10;;;;;;;8.58;55.28;94259.25;6166178;23;20350;-80
2023/01/06 02:12:46;;;;;;;3.20;1.08;;;;;;;8.66;55.47;94288.91;6165911;23;20005;-79
2023/01/06 02:15:21;;;;;;;2.42;1.27;;;;;;;8.63;54.39;94291.06;6165857;23;20072;-80
2023/01/06 02:18:11;;;;;;;2.90;1.48;;;;;;;8.59;54.59;94294.59;6166023;23;20032;-78
2023/01/06 02:20:50;;;;;;;4.07;1.30;;;;;;;8.53;54.46;94317.81;6165849;23;20009;-78
2023/01/06 02:23:49;;;;;;;3.28;1.08;;;;;;;8.50;55.05;94328.22;6166001;23;20024;-78
2023/01/06 02:26:52;;;;;;;2.42;1.65;;;;;;;8.34;55.91;94336.34;6165841;23;20057;-78
2023/01/06 02:29:36;;;;;;;4.45;1.70;;;;;;;8.27;56.67;94343.13;6165594;23;20020;-78
2023/01/06 02:32:13;;;;;;;6.13;2.05;;;;;;;8.15;57.31;94333.69;6165980;23;19997;-78
2023/01/06 02:35:04;;;;;;;4.55;1.60;;;;;;;8.07;57.48;94347.59;6165735;23;20087;-78
2023/01/06 02:37:54;;;;;;;5.53;1.58;;;;;;;8.00;57.54;94336.56;6149344;23;20028;-78
2023/01/06 02:40:47;;;;;;;4.32;1.95;;;;;;;7.88;58.32;94339.59;6165715;23;20008;-78
2023/01/06 02:43:34;;;;;;;3.13;1.63;;;;;;;7.82;58.40;94330.91;6165658;23;20096;-78
2023/01/06 02:46:14;;;;;;;5.10;1.98;;;;;;;7.82;58.19;94312.34;6165732;23;20326;-78
2023/01/06 02:48:49;;;;;;;3.33;1.75;;;;;;;7.75;58.34;94314.53;6165425;23;20008;-78
2023/01/06 02:51:23;;;;;;;4.28;2.05;;;;;;;7.71;58.42;94316.16;6139504;23;20012;-78
2023/01/06 02:54:05;;;;;;;6.88;2.03;;;;;;;7.66;58.43;94313.59;6165513;23;19997;-78
2023/01/06 02:56:37;;;;;;;6.40;2.67;;;;;;;7.67;58.73;94309.06;6139937;23;20192;-80
2023/01/06 02:59:13;;;;;;;6.90;2.40;;;;;;;7.70;58.45;94308.50;6165976;23;20188;-79
2023/01/06 03:01:45;;;;;;;6.57;2.40;;;;;;;7.68;58.36;94303.47;6139671;23;20000;-78
2023/01/06 03:04:14;;;;;;;;;;;;;;;7.70;57.81;94280.13;6165835;23;19993;-77
2023/01/06 03:06:43;;;;;;;7.35;1.98;;;;;;;7.70;58.10;94295.25;6139599;23;20053;-78
2023/01/06 03:09:13;;;;;;;4.78;2.30;;;;;;;7.67;58.25;94279.88;6165288;23;20002;-79
2023/01/06 03:11:40;;;;;;;5.43;2.03;;;;;;;7.65;57.64;94293.44;6165279;23;19998;-79
2023/01/06 03:14:14;;;;;;;4.10;2.05;;;;;;;7.74;56.47;94265.19;6165113;23;20232;-78
2023/01/06 03:16:39;;;;;;;4.80;1.95;;;;;;;7.79;56.71;94262.47;6165255;23;20009;-78
2023/01/06 03:19:05;;;;;;;3.60;1.70;;;;;;;7.79;56.97;94278.38;6165184;23;20318;-78
2023/01/06 03:21:41;;;;;;;5.15;2.72;;;;;;;7.79;56.75;94273.09;6139527;23;20020;-81
2023/01/06 03:24:09;;;;;;;4.47;2.25;;;;;;;7.77;57.43;94285.06;6165405;23;20187;-81
2023/01/06 03:26:35;;;;;;;7.88;1.95;;;;;;;7.62;57.70;94276.22;6165128;23;19997;-78
2023/01/06 03:29:01;;;;;;;6.30;1.80;;;;;;;7.67;56.27;94293.94;6165154;23;20221;-77
2023/01/06 03:31:38;;;;;;;4.03;1.75;;;;;;;7.69;56.57;94325.50;6165045;23;19997;-78
2023/01/06 03:34:25;;;;;;;2.95;1.55;;;;;;;7.62;57.54;94312.56;6165278;23;20012;-78
2023/01/06 03:37:09;;;;;;;2.55;1.40;;;;;;;7.56;57.68;94313.72;6165136;23;20001;-78
2023/01/06 03:39:47;;;;;;;3.95;1.40;;;;;;;7.53;57.37;94299.16;6138909;23;20005;-78
2023/01/06 03:45:40;;;;;;;6.68;1.92;;;;;;;7.44;57.73;94325.47;6164261;23;20040;-79
2023/01/06 03:48:20;;;;;;;4.57;1.92;;;;;;;7.44;57.80;94312.22;6164826;23;20004;-79
2023/01/06 03:50:49;;;;;;;3.65;1.92;;;;;;;7.38;58.42;94321.31;6164954;23;20270;-80
2023/01/06 03:53:28;;;;;;;4.20;2.08;;;;;;;7.34;58.80;94309.69;6164914;23;20177;-79
2023/01/06 03:56:11;;;;;;;4.90;2.20;;;;;;;7.32;58.63;94321.66;6164890;23;20017;-79
2023/01/06 03:58:39;;;;;;;6.43;1.58;;;;;;;7.27;58.22;94293.31;6164939;23;20323;-79
2023/01/06 04:01:05;;;;;;;4.07;1.85;;;;;;;7.29;58.54;94319.56;6165012;23;19998;-79
2023/01/06 04:03:31;;;;;;;2.72;1.67;;;;;;;7.29;58.06;94323.00;6139040;23;20024;-80
2023/01/06 04:05:57;;;;;;;3.42;1.75;;;;;;;7.29;58.19;94333.63;6164598;23;20301;-80
2023/01/06 04:08:22;;;;;;;7.07;2.05;;;;;;;7.32;58.15;94345.50;6164871;23;20005;-80
2023/01/06 04:10:47;;;;;;;4.05;1.85;;;;;;;7.31;58.33;94331.47;6138853;23;20021;-80
2023/01/06 04:13:13;;;;;;;6.72;1.80;;;;;;;7.28;57.78;94350.56;6164697;23;20056;-79
2023/01/06 04:15:38;;;;;;;4.57;1.75;;;;;;;7.24;57.51;94357.50;6164892;23;20009;-80
2023/01/06 04:18:04;;;;;;;2.97;1.75;;;;;;;7.28;57.92;94355.09;6164646;23;20191;-79
2023/01/06 04:20:30;;;;;;;4.35;1.80;;;;;;;7.28;57.71;94371.78;6164741;23;19993;-79
2023/01/06 04:22:56;;;;;;;4.28;2.03;;;;;;;7.31;57.54;94384.50;6138793;23;20023;-79
2023/01/06 04:25:23;;;;;;;5.10;2.13;;;;;;;7.27;57.47;94378.19;6164973;23;19998;-79
2023/01/06 04:27:49;;;;;;;3.60;1.50;;;;;;;7.25;56.84;94387.50;6164702;23;20025;-79
2023/01/06 04:30:15;;;;;;;4.80;2.00;;;;;;;7.22;57.33;94333.94;6164630;23;20044;-78
2023/01/06 04:32:41;;;;;;;2.35;1.00;;;;;;;7.20;56.20;94337.94;6138609;23;20005;-78
2023/01/06 04:35:07;;;;;;;1.95;1.23;;;;;;;7.20;56.98;94353.84;6164788;23;20004;-79
2023/01/06 04:37:33;;;;;;;4.72;2.03;;;;;;;7.16;57.74;94368.72;6164910;23;19994;-79
2023/01/06 04:39:58;;;;;;;2.28;1.25;;;;;;;7.13;57.44;94348.88;6138586;23;20093;-80
2023/01/06 04:42:24;;;;;;;3.45;1.35;;;;;;;7.14;58.05;94354.94;6164570;23;20013;-79
2023/01/06 04:44:49;;;;;;;4.32;1.20;;;;;;;7.13;57.49;94361.34;6164511;23;20001;-80
2023/01/06 04:47:15;;;;;;;3.10;1.42;;;;;;;7.15;57.55;94375.09;6164530;23;20228;-79
2023/01/06 04:49:40;;;;;;;3.50;1.52;;;;;;;7.13;57.61;94371.94;6163394;23;20005;-79
2023/01/06 04:52:07;;;;;;;2.13;1.15;;;;;;;7.13;57.23;94379.91;6164517;23;20199;-80
2023/01/06 04:54:33;;;;;;;2.38;1.20;;;;;;;7.13;57.65;94388.63;6164991;23;20024;-80
2023/01/06 04:56:59;;;;;;;4.53;2.08;;;;;;;7.17;57.79;94404.78;6164690;23;19998;-80
2023/01/06 04:59:24;;;;;;;6.85;1.90;;;;;;;7.21;57.21;94408.47;6164611;23;20009;-80
2023/01/06 05:01:49;;;;;;;2.15;1.30;;;;;;;7.14;57.69;94408.75;6164145;23;20169;-79
2023/01/06 05:04:15;;;;;;;4.15;1.30;;;;;;;7.21;57.92;94417.19;6138588;23;20014;-79
2023/01/06 05:06:40;;;;;;;3.15;1.42;;;;;;;7.15;58.11;94415.66;6164574;23;20005;-80
2023/01/06 05:09:06;;;;;;;2.20;1.30;;;;;;;7.13;58.14;94428.41;6164715;23;20053;-79
2023/01/06 05:11:32;;;;;;;5.38;1.33;;;;;;;7.13;58.40;94409.06;6164683;23;19997;-79
2023/01/06 05:13:58;;;;;;;4.05;1.77;;;;;;;7.07;58.65;94412.81;6163865;23;20009;-79
2023/01/06 05:16:28;;;;;;;2.83;1.70;;;;;;;7.06;58.90;94403.25;6164268;23;20012;-79
2023/01/06 05:18:54;;;;;;;4.57;1.60;;;;;;;7.06;58.76;94417.31;6164483;23;20005;-79
2023/01/06 05:21:23;;;;;;;4.25;1.60;;;;;;;7.04;58.95;94419.44;6164618;23;20053;-79
2023/01/06 05:23:49;;;;;;;3.85;1.50;;;;;;;7.05;59.11;94407.00;6164468;23;19998;-79
2023/01/06 05:26:17;;;;;;;5.28;1.90;;;;;;;6.99;58.96;94425.56;6164613;23;20005;-79
2023/01/06 05:28:43;;;;;;;5.45;1.88;;;;;;;6.96;59.29;94415.53;6164299;23;20008;-79
2023/01/06 05:31:10;;;;;;;3.25;1.40;;;;;;;6.92;58.38;94425.09;6164491;23;19997;-80
2023/01/06 05:33:35;;;;;;;2.92;1.38;;;;;;;6.93;58.07;94431.97;6164546;23;20010;-80
2023/01/06 05:36:10;;;;;;;4.00;1.77;;;;;;;6.97;57.49;94421.63;6164509;23;20195;-79
2023/01/06 05:38:35;;;;;;;2.72;1.67;;;;;;;6.95;57.44;94419.25;6164310;23;20025;-79
2023/01/06 05:41:01;;;;;;;4.35;1.83;;;;;;;6.92;57.00;94424.28;6164615;23;20001;-80
2023/01/06 05:43:27;;;;;;;1.60;0.90;;;;;;;6.90;55.88;94427.25;6164540;23;20060;-80
2023/01/06 05:45:53;;;;;;;2.83;1.42;;;;;;;6.95;56.52;94424.53;6138290;23;20267;-80
2023/01/06 05:48:22;;;;;;;3.55;1.70;;;;;;;6.98;56.55;94420.53;6164308;23;20013;-80
2023/01/06 05:50:48;;;;;;;2.15;1.35;;;;;;;6.93;55.78;94420.59;6165009;23;20000;-80
2023/01/06 05:53:13;;;;;;;2.88;1.48;;;;;;;6.96;55.46;94422.69;6140181;23;20064;-80
2023/01/06 05:55:39;;;;;;;4.38;1.83;;;;;;;6.94;54.98;94422.97;6166145;23;20001;-79
2023/01/06 05:58:04;;;;;;;1.98;1.00;;;;;;;6.99;54.64;94419.50;6166119;23;20291;-79
2023/01/06 06:00:30;;;;;;;3.97;1.17;;;;;;;7.00;55.05;94437.78;6140234;23;20044;-79
2023/01/06 06:02:55;;;;;;;5.05;1.38;;;;;;;7.00;55.27;94442.25;6165846;23;20013;-79
2023/01/06 06:05:21;;;;;;;3.42;1.67;;;;;;;6.98;55.02;94436.44;6165871;23;20013;-80
2023/01/06 06:07:52;;;;;;;5.07;1.42;;;;;;;7.00;55.37;94435.13;6165820;23;20001;-80
2023/01/06 06:10:18;;;;;;;2.50;1.33;;;;;;;7.03;55.01;94450.47;6166162;23;19993;-79
2023/01/06 06:12:43;;;;;;;3.80;1.58;;;;;;;7.02;53.98;94456.84;6139851;23;20315;-79
2023/01/06 06:15:09;;;;;;;2.80;1.27;;;;;;;7.08;53.49;94435.59;6165691;23;20009;-79
2023/01/06 06:17:34;;;;;;;2.22;1.05;;;;;;;7.12;52.75;94439.25;6165695;23;20048;-79
2023/01/06 06:19:59;;;;;;;2.13;0.90;;;;;;;7.17;52.38;94452.50;6165934;23;19997;-80
2023/01/06 06:22:25;;;;;;;1.25;0.70;;;;;;;7.19;51.55;94458.31;6166207;23;20017;-80
2023/01/06 06:24:50;;;;;;;3.67;0.77;;;;;;;7.20;51.66;94436.03;6166022;23;20344;-80
2023/01/06 06:27:16;;;;;;;1.88;1.15;;;;;;;7.24;51.82;94458.25;6165892;23;19994;-80
2023/01/06 06:29:41;;;;;;;1.60;0.80;;;;;;;7.25;51.77;94475.78;6165585;23;20064;-80
2023/01/06 06:32:07;;;;;;;2.83;1.10;;;;;;;7.26;52.43;94482.63;6165474;23;20112;-80
2023/01/06 06:34:32;;;;;;;2.20;0.95;;;;;;;7.28;52.57;94485.03;6166159;23;20005;-80
2023/01/06 06:36:57;;;;;;;2.20;1.08;;;;;;;7.28;52.49;94469.91;6165848;23;20343;-80
2023/01/06 06:39:23;;;;;;;6.90;1.00;;;;;;;7.27;53.01;94494.06;6139654;23;20013;-80
2023/01/06 06:41:48;;;;;;;4.10;1.17;;;;;;;7.23;52.77;94483.22;6165450;23;20192;-80
2023/01/06 06:44:14;;;;;;;2.90;1.50;;;;;;;7.25;52.84;94489.03;6165517;23;20306;-80
2023/01/06 06:46:39;;;;;;;3.15;1.30;;;;;;;7.30;52.87;94474.94;6165710;23;19997;-80
2023/01/06 06:49:05;;;;;;;3.05;1.45;;;;;;;7.31;52.86;94484.47;6165711;23;19997;-80
2023/01/06 06:51:30;;;;;;;2.97;1.00;;;;;;;7.29;52.77;94476.81;6165505;23;20204;-80
2023/01/06 06:53:56;;;;;;;4.20;1.10;;;;;;;7.31;52.78;94501.19;6165456;23;20295;-80
2023/01/06 06:56:21;;;;;;;3.75;1.40;;;;;;;7.33;52.70;94475.19;6165298;23;20012;-80
2023/01/06 06:58:47;;;;;;;3.03;1.02;;;;;;;7.35;52.87;94443.88;6139363;23;20005;-80
2023/01/06 07:01:15;;;;;;;5.22;1.17;;;;;;;7.35;53.11;94465.09;6165140;23;19994;-80
2023/01/06 07:03:40;;;;;;;4.63;1.23;;;;;;;7.40;52.45;94472.97;6165247;23;20001;-79
2023/01/06 07:06:09;;;;;;;2.67;1.08;;;;;;;7.39;52.18;94471.41;6165460;23;20204;-79
2023/01/06 07:08:35;;;;;;;2.42;1.23;;;;;;;7.43;52.16;94493.66;6165437;23;20228;-79
2023/01/06 07:11:00;;;;;;;2.83;1.20;;;;;;;7.44;52.13;94502.41;6165075;23;20036;-79
2023/01/06 07:13:26;;;;;;;2.20;0.90;;;;;;;7.50;51.92;94503.94;6139194;23;20009;-79
2023/01/06 07:15:52;;;;;;;1.95;1.17;;;;;;;7.53;51.91;94491.97;6165181;23;19993;-79
2023/01/06 07:18:17;;;;;;;2.42;0.98;;;;;;;7.54;51.78;94493.59;6139084;23;20006;-78
2023/01/06 07:20:47;;;;;;;3.50;1.48;;;;;;;7.52;51.48;94496.50;6165144;23;19993;-78
2023/01/06 07:23:13;;;;;;;6.72;1.13;;;;;;;7.52;51.97;94498.38;6164869;23;20008;-79
2023/01/06 07:25:38;;;;;;;4.28;1.35;;;;;;;7.47;52.51;94498.41;6165167;23;20188;-79
2023/01/06 07:28:05;;;;;;;2.30;1.00;;;;;;;7.44;52.65;94516.44;6165047;23;20292;-79
2023/01/06 07:30:32;;;;;;;4.43;1.10;;;;;;;7.54;52.61;94493.59;6165301;23;20008;-78
2023/01/06 07:32:57;;;;;;;4.10;1.55;;;;;;;7.55;52.91;94516.38;6165028;23;20315;-78
2023/01/06 07:35:22;;;;;;;2.70;1.30;;;;;;;7.60;52.86;94509.16;6165033;23;20028;-78
2023/01/06 07:37:48;;;;;;;2.33;1.08;;;;;;;7.57;52.54;94522.19;6138946;23;20048;-78
2023/01/06 07:40:14;;;;;;;2.97;1.40;;;;;;;7.56;52.49;94499.41;6164839;23;19998;-78
2023/01/06 07:42:39;;;;;;;3.97;1.48;;;;;;;7.52;52.92;94516.94;6165050;23;20002;-78
2023/01/06 07:45:06;;;;;;;2.42;1.08;;;;;;;7.55;53.19;94517.19;6165138;23;19997;-78
2023/01/06 07:47:32;;;;;;;2.08;1.15;;;;;;;7.53;52.72;94534.44;6165165;23;20005;-79
2023/01/06 07:49:57;;;;;;;3.63;1.27;;;;;;;7.55;52.42;94516.38;6164676;23;19997;-78
2023/01/06 07:52:23;;;;;;;4.65;1.10;;;;;;;7.57;52.23;94538.09;6164875;23;20044;-78
2023/01/06 07:54:48;;;;;;;2.13;1.05;;;;;;;7.64;52.54;94538.59;6165032;23;20002;-78
2023/01/06 07:57:14;;;;;;;2.65;1.20;;;;;;;7.59;52.77;94533.31;6138868;23;20199;-80
2023/01/06 07:59:39;;;;;;;3.47;1.50;;;;;;;7.60;52.44;94550.84;6165153;23;19997;-81
2023/01/06 08:02:05;;;;;;;3.20;1.20;;;;;;;7.52;52.67;94535.50;6164931;23;20001;-81
2023/01/06 08:04:34;;;;;;;2.40;1.20;;;;;;;7.58;52.89;94532.53;6165071;23;19993;-79
2023/01/06 08:06:59;;;;;;;2.67;1.42;;;;;;;7.63;52.27;94542.31;6164898;23;20009;-79
2023/01/06 08:09:25;;;;;;;3.47;1.50;;;;;;;7.68;52.37;94544.94;6138964;23;19997;-80
2023/01/06 08:11:50;;;;;;;2.28;1.05;;;;;;;7.62;52.78;94552.13;6164860;23;20006;-80
2023/01/06 08:14:15;;;;;;;3.33;1.52;;;;;;;7.66;52.75;94544.41;6138797;23;20032;-80
2023/01/06 08:16:41;;;;;;;5.53;1.60;;;;;;;7.74;52.42;94541.16;6165078;23;20005;-80
2023/01/06 08:19:06;;;;;;;4.40;1.38;;;;;;;7.79;52.02;94557.03;6138742;23;20021;-80
2023/01/06 08:21:32;;;;;;;2.63;1.27;;;;;;;7.80;52.10;94553.31;6164841;23;19993;-80
2023/01/06 08:23:57;;;;;;;1.98;0.95;;;;;;;7.84;51.71;94570.28;6138603;23;20064;-80
2023/01/06 08:26:23;;;;;;;3.47;1.27;;;;;;;7.82;51.80;94564.44;6138884;23;20311;-79
2023/01/06 08:28:48;;;;;;;3.35;1.38;;;;;;;7.84;51.10;94594.16;6138325;23;20108;-80
2023/01/06 08:31:17;;;;;;;1.60;1.00;;;;;;;7.89;50.57;94576.63;6164594;23;20017;-81
2023/01/06 08:33:43;;;;;;;4.45;1.05;;;;;;;7.92;50.29;94581.38;6164443;23;20001;-80
2023/01/06 08:36:12;;;;;;;2.03;0.90;;;;;;;7.91;51.23;94590.41;6164894;23;20001;-81
2023/01/06 08:38:38;;;;;;;3.10;0.70;;;;;;;8.06;51.01;94570.88;6164876;23;20021;-81
2023/01/06 08:41:05;;;;;;;2.13;0.98;;;;;;;8.28;51.09;94581.03;6165181;23;19997;-80
2023/01/06 08:43:33;;;;;;;1.80;0.90;;;;;;;8.29;49.52;94577.34;6164966;23;20001;-80
2023/01/06 08:46:03;;;;;;;3.90;1.20;;;;;;;8.28;50.04;94575.72;6164722;23;20069;-81
2023/01/06 08:48:30;;;;;;;1.58;0.82;;;;;;;8.17;49.88;94569.72;6164990;23;20056;-80
2023/01/06 08:51:03;;;;;;;3.45;0.80;;;;;;;8.19;49.49;94594.94;6164808;23;20017;-81
2023/01/06 08:53:29;;;;;;;1.70;0.73;;;;;;;8.24;49.45;94578.97;6164442;23;20004;-78
2023/01/06 08:55:54;;;;;;;4.18;1.00;;;;;;;8.32;49.56;94556.28;6164625;23;20001;-78
2023/01/06 08:58:20;;;;;;;3.40;1.00;;;;;;;8.27;49.70;94547.59;6164692;23;20073;-80
2023/01/06 09:00:45;;;;;;;3.20;1.25;;;;;;;8.30;49.68;94552.34;6164591;23;20002;-81
2023/01/06 09:03:10;;;;;;;2.70;1.13;;;;;;;8.28;49.77;94549.16;6164283;23;20006;-79
2023/01/06 09:05:36;;;;;;;1.90;1.00;;;;;;;8.23;50.28;94553.47;6164622;23;20024;-79
2023/01/06 09:08:01;;;;;;;2.65;1.00;;;;;;;8.32;50.54;94556.28;6164534;23;19989;-79
2023/01/06 09:10:27;;;;;;;2.30;0.80;;;;;;;8.43;50.24;94533.13;6164510;23;20009;-78
2023/01/06 09:12:52;;;;;;;4.40;1.15;;;;;;;8.51;49.76;94526.38;6164376;23;20389;-79
2023/01/06 09:15:18;;;;;;;3.30;1.63;;;;;;;8.46;49.65;94542.38;6138064;23;20018;-79
2023/01/06 09:17:43;;;;;;;3.25;1.40;;;;;;;8.52;49.57;94523.44;6164031;23;20044;-79
2023/01/06 09:20:09;;;;;;;2.92;1.08;;;;;;;8.57;49.73;94527.94;6164546;23;19998;-78
2023/01/06 09:22:35;;;;;;;2.20;1.35;;;;;;;8.50;49.50;94524.81;6164373;23;20231;-78
2023/01/06 09:25:00;;;;;;;5.88;1.08;;;;;;;8.48;50.66;94529.59;6164563;23;20009;-79
2023/01/06 09:27:26;;;;;;;5.22;1.70;;;;;;;8.55;50.45;94528.19;6166336;23;19997;-79
2023/01/06 09:29:51;;;;;;;5.13;1.20;;;;;;;8.63;50.22;94538.19;6166273;23;20002;-80
2023/01/06 09:32:17;;;;;;;4.38;1.65;;;;;;;8.68;50.51;94569.22;6139857;23;20001;-79
2023/01/06 09:34:42;;;;;;;3.22;1.60;;;;;;;8.60;49.98;94525.47;6166314;23;19997;-79
2023/01/06 09:48:30;;;;;;;7.65;3.05;;;;;;;9.27;48.35;94492.69;5080389;28;20396;-84
2023/01/06 09:50:59;;;;;;;2.15;1.08;;;;;;;9.11;47.80;94501.97;5080140;28;20020;-77
2023/01/06 09:53:30;;;;;;;3.50;1.13;;;;;;;8.80;48.64;94508.50;5080134;28;20091;-83
2023/01/06 09:56:00;;;;;;;2.22;1.10;;;;;;;8.75;49.14;94505.09;5080080;28;20027;-87
2023/01/06 09:59:00;;;;;;;1.60;1.02;;;;;;;8.76;49.68;94496.06;5080072;28;20037;-80
2023/01/06 10:01:38;;;;;;;3.28;1.13;;;;;;;8.70;49.56;94497.19;5078543;28;20034;-79
2023/01/06 10:04:03;;;;;;;1.83;0.80;;;;;;;8.68;48.85;94488.72;5079698;28;20025;-81
2023/01/06 10:06:42;;;;;;;5.53;1.27;;;;;;;8.70;49.26;94490.00;5079930;28;20367;-80
2023/01/06 10:09:30;;;;;;;2.80;0.85;;;;;;;8.74;48.19;94474.28;5080069;28;20027;-80
2023/01/06 10:12:19;;;;;;;2.25;0.70;;;;;;;8.67;48.23;94497.75;5079828;28;20028;-80
2023/01/06 10:15:06;;;;;;;4.85;1.10;;;;;;;8.42;47.96;94503.09;5079597;28;20031;-80
2023/01/06 10:17:59;;;;;;;1.10;0.60;;;;;;;8.46;48.26;94479.41;5079602;28;20025;-82
2023/01/06 10:20:39;;;;;;;1.90;0.60;;;;;;;8.53;47.92;94498.47;5079418;28;20020;-80
2023/01/06 10:23:42;;;;;;;4.47;0.82;;;;;;;8.63;48.14;94474.44;5079278;28;20024;-80
2023/01/06 10:26:10;;;;;;;5.68;0.93;;;;;;;8.74;48.13;94472.41;5077835;28;20104;-80
2023/01/06 10:28:43;;;;;;;5.32;0.80;;;;;;;8.81;47.73;94480.03;5079548;28;20028;-80
2023/01/06 10:31:16;;;;;;;2.97;0.88;;;;;;;8.82;47.62;94484.28;5079808;28;20028;-81
2023/01/06 10:33:47;;;;;;;3.75;0.90;;;;;;;9.06;47.17;94480.75;5079295;28;20310;-84
2023/01/06 10:36:15;;;;;;;2.88;1.05;;;;;;;9.27;46.82;94492.69;5079567;28;20058;-81
2023/01/06 10:38:53;;;;;;;1.98;1.00;;;;;;;9.28;46.44;94470.34;5079321;28;20028;-81
2023/01/06 10:41:42;;;;;;;3.33;1.10;;;;;;;9.41;46.53;94479.47;5079353;28;20042;-81
2023/01/06 10:44:12;;;;;;;1.70;0.80;;;;;;;9.50;46.42;94463.63;5068799;28;20040;-81
2023/01/06 10:46:40;;;;;;;2.42;0.85;;;;;;;9.54;46.36;94467.28;5079182;28;20116;-81
2023/01/06 10:49:14;;;;;;;3.22;1.23;;;;;;;9.53;46.55;94460.38;5066432;28;20028;-82
2023/01/06 10:51:47;;;;;;;2.90;1.13;;;;;;;9.50;47.15;94453.75;5064879;28;20021;-81
2023/01/06 10:54:26;;;;;;;1.70;0.85;;;;;;;9.42;47.01;94473.84;5065929;28;20028;-82
2023/01/06 10:57:05;;;;;;;2.15;0.93;;;;;;;9.40;46.72;94436.09;5065761;28;20028;-82
2023/01/06 10:59:30;;;;;;;1.75;1.00;;;;;;;9.31;46.87;94432.50;5064642;28;20221;-82
2023/01/06 11:01:56;;;;;;;5.93;1.67;;;;;;;9.41;46.91;94436.88;5065695;28;20040;-81
2023/01/06 11:04:26;;;;;;;2.20;1.10;;;;;;;9.47;46.63;94424.31;5064600;28;20128;-81
2023/01/06 11:07:00;;;;;;;2.38;1.17;;;;;;;9.64;46.74;94433.28;5065628;28;20020;-81
2023/01/06 11:09:41;;;;;;;2.17;1.00;;;;;;;9.65;45.99;94426.13;5065576;28;20028;-83
2023/01/06 11:12:22;;;;;;;3.30;1.10;;;;;;;9.48;46.47;94441.81;5065813;28;20083;-83
2023/01/06 11:14:57;;;;;;;4.25;1.10;;;;;;;9.37;46.88;94427.91;5065912;28;20128;-82
2023/01/06 11:17:25;;;;;;;2.92;1.10;;;;;;;9.24;46.43;94432.13;5065635;28;20017;-82
2023/01/06 11:20:28;;;;;;;5.47;1.58;;;;;;;9.19;47.36;94424.97;5064281;28;20051;-82
2023/01/06 11:22:53;;;;;;;2.35;1.05;;;;;;;9.21;47.22;94443.31;5065118;28;20021;-83
2023/01/06 11:25:19;;;;;;;4.28;1.38;;;;;;;9.26;47.27;94445.09;5065381;28;20074;-83
2023/01/06 11:27:45;;;;;;;5.03;1.35;;;;;;;9.28;46.96;94432.28;5065353;28;20428;-82
2023/01/06 11:30:30;;;;;;;3.85;1.38;;;;;;;9.20;47.92;94426.56;5065266;28;20027;-84
2023/01/06 11:32:55;;;;;;;7.30;1.10;;;;;;;9.18;46.71;94428.72;5065119;28;20025;-84
2023/01/06 11:35:25;;;;;;;2.97;1.10;;;;;;;9.23;46.44;94414.56;5063833;28;20325;-83
2023/01/06 11:37:57;;;;;;;4.15;1.05;;;;;;;9.21;47.03;94432.69;5064124;28;20024;-84
2023/01/06 11:40:28;;;;;;;;;;;;;;;9.26;47.18;94427.28;5065635;28;20029;-82
2023/01/06 11:42:58;;;;;;;3.90;1.08;;;;;;;9.37;47.38;94441.22;5063901;28;19991;-83
2023/01/06 11:45:33;;;;;;;2.72;1.17;;;;;;;9.41;46.32;94448.31;5064836;28;20025;-83
2023/01/06 11:48:00;;;;;;;2.63;1.25;;;;;;;9.43;46.28;94430.19;5064838;28;20040;-83
2023/01/06 11:50:25;;;;;;;2.80;1.42;;;;;;;9.38;46.14;94432.13;5064853;28;20029;-84
2023/01/06 11:53:03;;;;;;;3.42;0.82;;;;;;;9.26;46.31;94418.50;5064810;28;20025;-84
2023/01/06 11:55:29;;;;;;;1.90;1.08;;;;;;;9.12;46.57;94439.72;5064605;28;20547;-82
2023/01/06 11:58:10;;;;;;;4.43;1.20;;;;;;;9.17;46.69;94413.84;5064541;28;20045;-81
2023/01/06 12:00:42;;;;;;;3.22;1.10;;;;;;;9.20;46.71;94431.13;5063363;28;20314;-82
2023/01/06 12:03:41;;;;;;;2.92;1.70;;;;;;;9.22;46.94;94443.03;5064657;28;20016;-83
2023/01/06 12:06:12;;;;;;;2.00;1.00;;;;;;;9.14;46.81;94427.72;5062447;28;20016;-83
2023/01/06 12:09:12;;;;;;;2.80;1.17;;;;;;;9.11;46.75;94443.47;5063118;28;20036;-83